KMLU

Monroe Regional Airport

Monroe, Louisiana, USA
KMLU 242054Z 2421/2518 19008KT P6SM VCTS FEW040CB BKN070 OVC100 TEMPO 2421/2423 VRB15G25KT 3SM -TSRA BKN030CB FM250100 VRB03KT P6SM BKN100 FM250700 VRB03KT 5SM BR SKC FM250900 18004KT 4SM BR OVC015 FM251700 22006KT P6SM BKN050
Issued Valid From Valid To
Sep-24 @ 20:54 UTC
(2 hours ago)
Sep-24 @ 21:00 UTC
(2 hours ago)
Sep-25 @ 18:00 UTC
(in 19 hours)
Sep-24 @ 21:00 to Sep-25 @ 01:00
KMLU 242054Z 2421/2518 19008KT P6SM VCTS FEW040CB BKN070 OVC100
Wind Visibility Clouds Conditions
190° at 8 knots Greater than 6 miles
  • Few at 4,000' AGL
  • Broken at 7,000' AGL
  • Overcast at 10,000' AGL
  • Area Thunderstorm
Expired Click to View Sep-24 @ 21:00 to Sep-24 @ 23:00
TEMPO 2421/2423 VRB15G25KT 3SM -TSRA BKN030CB
Wind Visibility Clouds Conditions
Variable at 15 knots
 Gusting to 25 knots
3 miles
  • Broken at 3,000' AGL
  • Light Thunderstorm
  • Light Rain
From Sep-25 @ 01:00 to Sep-25 @ 07:00
FM250100 VRB03KT P6SM BKN100
Wind Visibility Clouds
Variable at 3 knots Greater than 6 miles
  • Broken at 10,000' AGL
From Sep-25 @ 07:00 to Sep-25 @ 09:00
FM250700 VRB03KT 5SM BR SKC
Wind Visibility Clouds Conditions
Variable at 3 knots 5 miles
  • Clear skies
  • Mist
From Sep-25 @ 09:00 to Sep-25 @ 17:00
FM250900 18004KT 4SM BR OVC015
Wind Visibility Clouds Conditions
180° at 4 knots 4 miles
  • Overcast at 1,500' AGL
  • Mist
From Sep-25 @ 17:00 to Sep-25 @ 18:00
FM251700 22006KT P6SM BKN050
Wind Visibility Clouds
220° at 6 knots Greater than 6 miles
  • Broken at 5,000' AGL
KMLU 242054Z 2421/2518 19008KT P6SM VCTS FEW040CB BKN070 OVC100 TEMPO 2421/2423 VRB15G25KT 3SM -TSRA BKN030CB FM250100 VRB03KT P6SM BKN100 FM250700 VRB03KT 5SM BR SKC FM250900 18004KT 4SM BR OVC015 FM251700 22006KT P6SM BKN050
Issued Sep-24 @ 20:54 UTC
(2 hours ago)
Valid From Sep-24 @ 21:00 UTC
(2 hours ago)
Valid To Sep-25 @ 18:00 UTC
(in 19 hours)
Sep-24 @ 21:00 - Sep-25 @ 01:00
Wind Visibility
190° at 8 knots Greater than 6 miles
Clouds
  • Few at 4,000' AGL
  • Broken at 7,000' AGL
  • Overcast at 10,000' AGL
Conditions
  • Area Thunderstorm
Sep-24 @ 21:00 - Sep-24 @ 23:00
Wind Visibility
Variable at 15 knots
 Gusting to 25 knots
3 miles
Clouds
  • Broken at 3,000' AGL
Conditions
  • Light Thunderstorm
  • Light Rain
From Sep-25 @ 01:00 - Sep-25 @ 07:00
Wind Visibility
Variable at 3 knots Greater than 6 miles
Clouds
  • Broken at 10,000' AGL
From Sep-25 @ 07:00 - Sep-25 @ 09:00
Wind Visibility
Variable at 3 knots 5 miles
Clouds
  • Clear skies
Conditions
  • Mist
From Sep-25 @ 09:00 - Sep-25 @ 17:00
Wind Visibility
180° at 4 knots 4 miles
Clouds
  • Overcast at 1,500' AGL
Conditions
  • Mist
From Sep-25 @ 17:00 - Sep-25 @ 18:00
Wind Visibility
220° at 6 knots Greater than 6 miles
Clouds
  • Broken at 5,000' AGL